Little Rock, AR (72201)

7:57 AM CDT on July 28, 2016 (GMT -0500)
Democrat-Gazette Downtown | | Change Station

Elev 371 ft 34.74 °N, 92.27 °W | Updated 7 seconds ago

Mostly Cloudy
Mostly Cloudy
77.7 °F
Feels Like 80 °F
N
2.5
Wind Variable Wind from NW
Gusts 4.9 mph

Today
High -- | Low -- °F
--% Chance of Precip.
Yesterday
High -- | Low -- °F
Precip. -- in
Pressure 29.96 in
Visibility 10.0 miles
Clouds Few 600 ft
Mostly Cloudy 8000 ft
Mostly Cloudy 15000 ft
Heat Index 80 °F
Dew Point 75 °F
Humidity 91%
Rainfall 0.00 in
Snow Depth Not available.
6:16 AM 8:14 PM
Waning Crescent, 32% visible
METAR KLIT 281253Z 25005KT 10SM FEW006 BKN080 BKN150 26/23 A2996 RMK AO2 SLP144 SCT006VBKN T02610233
Pressure 29.96 in
Visibility 10.0 miles
Clouds Few 600 ft
Mostly Cloudy 8000 ft
Mostly Cloudy 15000 ft
Heat Index 80 °F
Dew Point 75 °F
Humidity 91%
Rainfall 0.00 in
Snow Depth Not available.
6:16 AM 8:14 PM
Waning Crescent, 32% visible
METAR KLIT 281253Z 25005KT 10SM FEW006 BKN080 BKN150 26/23 A2996 RMK AO2 SLP144 SCT006VBKN T02610233

10-Day Weather Forecast

Almanac

Astronomy

Jul. 28, 2016 Rise Set
Actual Time
Civil Twilight
Nautical Twilight
Astronomical Twilight
Moon
Length of Visible Light
Length of Day
Tomorrow will be .
, % of the Moon is Illuminated

Today's Extremes

State Highs State Lows

Community

WunderPhotos

Upload Photos

1,928,101 photos uploaded!

WunderBlog® & News

Nearby

Air Quality

  Air Quality AQ Index Pollutant
Not available.

Snow Depth

Station Depth Elevation

Earthquake Activity

City Distance Mag. Time & Date
Minimum magnitude displayed is 2.5.

Coastal Water Temperatures

Place Temperature

Stations

Nearby Weather Stations

Station Location Temp. Windchill Dew Point Humidity Wind Precip. Elev Updated Type
                   

Watches & Warnings

There are currently no watches in effect.